Time;durP1;ratioP1;P1;durP2;ratioP2;P2;SDS_P1;SDS_P2;PMS_P1;PMS_P2;Temp;Humidity;BMP_temperature;BMP_pressure;BME280_temperature;BME280_humidity;BME280_pressure;Samples;Min_cycle;Max_cycle;Signal;HPM_P1;HPM_P2
2023/09/05 00:00:13;;;;;;;;;9.00;6.75;;;;;25.50;47.56;101081.94;4957242;28;45506;-68
2023/09/05 00:02:40;;;;;;;;;6.50;6.50;;;;;25.49;47.95;101088.28;4976113;27;45541;-67
2023/09/05 00:05:08;;;;;;;;;8.00;8.00;;;;;25.50;47.45;101084.63;4973288;28;45475;-68
2023/09/05 00:07:37;;;;;;;;;8.25;8.00;;;;;25.47;47.95;101087.50;4980962;28;45370;-67
2023/09/05 00:10:11;;;;;;;;;13.75;7.50;;;;;25.45;48.03;101085.84;4973985;28;45730;-67
2023/09/05 00:12:40;;;;;;;;;7.00;6.50;;;;;25.35;48.25;101072.94;4980911;28;46746;-66
2023/09/05 00:15:08;;;;;;;;;9.00;7.75;;;;;25.43;48.35;101082.38;4976172;27;45476;-67
2023/09/05 00:17:36;;;;;;;;;7.50;7.50;;;;;25.41;47.87;101086.94;4982723;28;45404;-67
2023/09/05 00:20:02;;;;;;;;;7.25;6.00;;;;;25.36;48.05;101084.53;4976290;27;45541;-67
2023/09/05 00:22:27;;;;;;;;;10.25;8.50;;;;;25.38;47.83;101090.66;4975892;27;46013;-67
2023/09/05 00:24:53;;;;;;;;;7.00;7.00;;;;;25.44;48.36;101093.03;4985224;27;45375;-67
2023/09/05 00:27:19;;;;;;;;;9.00;7.75;;;;;25.47;48.03;101090.16;4977598;27;45399;-66
2023/09/05 00:29:45;;;;;;;;;9.00;7.00;;;;;25.45;48.14;101088.53;4993161;27;45636;-67
2023/09/05 00:32:11;;;;;;;;;8.00;6.50;;;;;25.55;47.74;101085.25;4974933;27;46039;-67
2023/09/05 00:34:38;;;;;;;;;11.00;7.00;;;;;25.50;47.81;101081.09;4968832;28;45428;-66
2023/09/05 00:37:06;;;;;;;;;9.75;8.25;;;;;25.50;48.04;101086.44;4995711;27;45418;-66
2023/09/05 00:39:33;;;;;;;;;7.75;7.75;;;;;25.50;47.94;101083.78;4975804;27;46058;-68
2023/09/05 00:42:00;;;;;;;;;9.00;7.00;;;;;25.46;48.16;101085.78;4993979;27;46693;-66
2023/09/05 00:44:32;;;;;;;;;9.00;6.00;;;;;25.45;48.16;101084.03;4995185;27;45245;-66
2023/09/05 00:47:00;;;;;;;;;9.50;7.75;;;;;25.36;47.85;101066.59;4994309;27;45285;-67
2023/09/05 00:49:29;;;;;;;;;7.00;7.00;;;;;25.46;47.53;101084.88;4990208;28;45334;-66
2023/09/05 00:51:59;;;;;;;;;10.00;7.00;;;;;25.47;48.22;101082.13;4990846;27;45538;-67
2023/09/05 00:54:25;;;;;;;;;8.25;8.25;;;;;25.50;47.56;101081.09;4993798;27;45444;-67
2023/09/05 00:56:53;;;;;;;;;10.25;9.00;;;;;25.50;47.83;101076.59;4993586;27;45285;-67
2023/09/05 00:59:19;;;;;;;;;7.75;7.75;;;;;25.44;48.23;101086.78;4994590;27;45527;-66
2023/09/05 01:01:45;;;;;;;;;8.00;8.00;;;;;25.33;48.06;101084.69;4994737;27;45441;-68
2023/09/05 01:04:13;;;;;;;;;7.25;7.25;;;;;25.28;48.36;101084.94;4989094;27;45446;-68
2023/09/05 01:06:49;;;;;;;;;8.25;6.75;;;;;25.27;48.31;101075.19;4985423;28;45811;-68
2023/09/05 01:09:45;;;;;;;;;8.25;6.25;;;;;25.17;48.67;101073.88;4993610;27;45459;-68
2023/09/05 01:12:11;;;;;;;;;8.50;7.00;;;;;25.17;48.73;101076.56;4993432;27;45406;-67
2023/09/05 01:14:36;;;;;;;;;7.00;7.00;;;;;25.18;48.74;101081.03;4994594;27;45464;-67
2023/09/05 01:17:05;;;;;;;;;7.00;7.00;;;;;25.23;48.72;101076.28;4977202;28;45441;-67
2023/09/05 01:19:34;;;;;;;;;7.00;6.00;;;;;25.26;48.21;101069.88;4993582;27;45698;-67
2023/09/05 01:22:13;;;;;;;;;9.00;6.75;;;;;25.33;48.63;101079.34;4992955;27;45571;-68
2023/09/05 01:24:40;;;;;;;;;8.00;8.00;;;;;25.22;48.27;101079.91;4992894;27;45362;-67
2023/09/05 01:27:08;;;;;;;;;6.50;5.75;;;;;24.98;48.86;101044.53;4975607;28;45454;-67
2023/09/05 01:29:39;;;;;;;;;9.25;9.00;;;;;25.12;48.83;101074.13;4993396;27;45331;-67
2023/09/05 01:32:09;;;;;;;;;6.25;6.25;;;;;25.17;48.29;101076.56;4993995;28;45433;-68
2023/09/05 01:34:35;;;;;;;;;9.25;8.50;;;;;25.23;48.40;101072.75;4994043;27;45459;-67
2023/09/05 01:37:00;;;;;;;;;8.25;8.25;;;;;25.19;48.29;101064.00;4976084;28;45413;-67
2023/09/05 01:39:25;;;;;;;;;9.50;7.00;;;;;25.14;48.52;101066.88;4979282;27;45969;-66
2023/09/05 01:41:52;;;;;;;;;7.25;7.25;;;;;25.07;48.68;101073.53;4992862;27;46546;-67
2023/09/05 01:44:18;;;;;;;;;7.75;7.25;;;;;24.89;48.99;101056.63;4995287;27;45795;-68
2023/09/05 01:46:43;;;;;;;;;12.00;8.50;;;;;24.97;48.63;101061.56;4996456;27;45208;-66
2023/09/05 01:49:09;;;;;;;;;6.50;6.50;;;;;25.02;48.52;101064.00;4996176;27;45356;-67
2023/09/05 01:51:35;;;;;;;;;9.00;6.00;;;;;25.03;48.56;101065.72;4995805;27;45522;-67
2023/09/05 01:54:00;;;;;;;;;7.00;6.25;;;;;24.94;48.49;101053.69;4995955;27;45459;-66
2023/09/05 01:56:26;;;;;;;;;7.75;7.75;;;;;25.07;48.42;101062.81;4995894;27;45479;-67
2023/09/05 01:58:52;;;;;;;;;8.50;7.00;;;;;25.07;48.12;101060.13;4996217;27;45438;-67
2023/09/05 02:01:17;;;;;;;;;12.50;8.00;;;;;24.97;48.41;101061.56;4995745;27;45934;-66
2023/09/05 02:03:43;;;;;;;;;8.75;8.50;;;;;24.81;49.09;101047.25;4996014;27;45377;-68
2023/09/05 02:06:09;;;;;;;;;8.00;8.00;;;;;24.77;49.00;101049.22;4997076;27;45384;-68
2023/09/05 02:08:34;;;;;;;;;6.25;6.25;;;;;24.76;48.71;101053.72;4996269;27;45539;-67
2023/09/05 02:11:01;;;;;;;;;7.25;7.25;;;;;24.77;48.85;101041.16;4996685;27;45355;-68
2023/09/05 02:13:28;;;;;;;;;7.75;7.50;;;;;24.87;48.57;101050.47;4979166;27;45368;-67
2023/09/05 02:15:53;;;;;;;;;11.25;7.00;;;;;24.75;48.36;101030.56;4995760;27;45372;-68
2023/09/05 02:18:19;;;;;;;;;8.50;8.00;;;;;24.76;48.64;101040.31;4996354;27;45220;-67
2023/09/05 02:20:44;;;;;;;;;7.67;7.00;;;;;24.73;48.96;101039.63;4978197;28;45486;-66
2023/09/05 02:23:10;;;;;;;;;7.75;7.00;;;;;24.66;49.07;101031.03;4995762;27;45410;-68
2023/09/05 02:25:35;;;;;;;;;7.75;7.25;;;;;24.68;49.05;101045.22;4995920;27;45460;-66
2023/09/05 02:28:01;;;;;;;;;8.00;7.75;;;;;24.59;48.50;101026.94;4995974;27;45600;-67
2023/09/05 02:30:27;;;;;;;;;11.25;7.50;;;;;24.54;49.33;101053.09;4995556;27;45919;-68
2023/09/05 02:32:55;;;;;;;;;8.00;6.00;;;;;24.48;49.00;101046.22;4977784;27;45490;-67
2023/09/05 02:35:27;;;;;;;;;7.25;6.75;;;;;24.51;49.65;101048.78;4977603;27;45494;-66
2023/09/05 02:37:54;;;;;;;;;7.25;7.25;;;;;24.48;49.71;101046.22;4975906;27;45466;-67
2023/09/05 02:40:21;;;;;;;;;9.75;7.25;;;;;24.34;49.01;101016.59;4983497;27;46462;-67
2023/09/05 02:42:46;;;;;;;;;7.75;7.75;;;;;24.51;48.99;101045.19;4995607;27;45364;-66
2023/09/05 02:45:13;;;;;;;;;8.25;8.25;;;;;24.38;49.16;101042.25;4997682;27;45470;-67
2023/09/05 02:47:46;;;;;;;;;8.00;7.25;;;;;24.23;49.56;101030.53;4980034;27;45488;-68
2023/09/05 02:50:11;;;;;;;;;9.75;8.00;;;;;24.20;49.79;101032.47;4978368;27;45476;-67
2023/09/05 02:52:37;;;;;;;;;7.00;7.00;;;;;24.08;49.79;101018.78;4995239;27;45224;-67
2023/09/05 02:55:03;;;;;;;;;9.33;8.00;;;;;24.21;49.96;101031.56;4994818;27;45482;-67
2023/09/05 02:57:29;;;;;;;;;11.50;9.00;;;;;24.26;50.02;101040.22;4977829;27;45551;-66
2023/09/05 03:00:01;;;;;;;;;7.00;6.33;;;;;24.10;49.66;101013.34;4995120;27;45909;-67
2023/09/05 03:02:26;;;;;;;;;7.00;6.67;;;;;24.22;50.21;101043.97;4995907;27;45679;-66
2023/09/05 03:04:55;;;;;;;;;5.50;5.00;;;;;24.22;49.80;101035.94;4997266;27;45402;-68
2023/09/05 03:07:21;;;;;;;;;11.33;7.67;;;;;24.24;49.72;101042.09;4997129;27;45536;-66
2023/09/05 03:09:50;;;;;;;;;9.00;7.67;;;;;24.21;49.80;101040.44;4995262;27;45710;-68
2023/09/05 03:12:15;;;;;;;;;9.33;7.33;;;;;24.23;49.75;101035.88;4995124;27;45483;-67
2023/09/05 03:14:41;;;;;;;;;5.00;5.00;;;;;24.19;50.03;101030.75;4995384;27;45417;-67
2023/09/05 03:17:09;;;;;;;;;7.25;6.75;;;;;24.22;50.13;101038.63;4995144;27;45282;-68
2023/09/05 03:19:36;;;;;;;;;7.67;7.33;;;;;24.16;49.90;101022.91;4994958;27;46421;-68
2023/09/05 03:22:01;;;;;;;;;11.25;7.00;;;;;24.19;50.03;101030.75;4994667;27;45930;-68
2023/09/05 03:24:28;;;;;;;;;6.33;6.33;;;;;24.19;49.82;101025.41;4994918;27;45457;-68
2023/09/05 03:26:54;;;;;;;;;10.00;9.00;;;;;24.06;50.35;101019.78;4996194;27;45647;-68
2023/09/05 03:29:19;;;;;;;;;8.00;8.00;;;;;23.98;50.29;101022.84;4995201;27;46159;-69
2023/09/05 03:31:45;;;;;;;;;9.00;9.00;;;;;23.95;50.44;101017.66;4995527;27;45473;-68
2023/09/05 03:34:10;;;;;;;;;9.67;7.67;;;;;23.79;50.49;101001.50;4978780;27;45331;-70
2023/09/05 03:36:36;;;;;;;;;12.00;8.33;;;;;23.87;50.54;101020.72;4978232;28;45495;-72
2023/09/05 03:39:02;;;;;;;;;6.00;4.50;;;;;23.83;50.78;101018.28;4983264;27;45415;-68
2023/09/05 03:41:34;;;;;;;;;8.00;7.67;;;;;23.83;50.84;101019.13;4992454;27;45362;-68
2023/09/05 03:44:06;;;;;;;;;7.33;7.00;;;;;23.69;50.59;100990.34;4978184;28;45734;-68
2023/09/05 03:46:32;;;;;;;;;11.00;8.00;;;;;23.73;50.85;100983.06;4996702;27;45611;-67
2023/09/05 03:48:57;;;;;;;;;11.33;9.00;;;;;24.01;50.30;101012.00;4996272;28;45433;-68
2023/09/05 03:51:32;;;;;;;;;9.00;7.33;;;;;23.88;50.61;101009.06;4996207;27;46002;-68
2023/09/05 03:53:59;;;;;;;;;8.00;7.00;;;;;23.82;50.69;100998.66;4997742;27;46061;-68
2023/09/05 03:56:28;;;;;;;;;8.33;7.33;;;;;23.87;50.83;101006.44;4997303;27;45326;-67
2023/09/05 03:58:54;;;;;;;;;9.75;8.25;;;;;23.71;51.11;100987.59;4995268;27;45398;-68
2023/09/05 04:01:19;;;;;;;;;8.33;8.33;;;;;23.73;51.10;100998.22;4994912;27;45454;-68
2023/09/05 04:03:46;;;;;;;;;9.00;7.67;;;;;23.49;51.05;100951.22;4994405;27;45593;-67
2023/09/05 04:06:12;;;;;;;;;10.33;8.67;;;;;23.65;50.96;100991.44;4993783;27;45443;-68
2023/09/05 04:08:38;;;;;;;;;12.33;8.00;;;;;23.70;51.50;101001.91;4993615;27;46687;-67
2023/09/05 04:11:05;;;;;;;;;8.67;8.67;;;;;23.28;51.38;100931.75;4994589;27;45863;-67
2023/09/05 04:13:31;;;;;;;;;11.33;10.00;;;;;23.15;51.27;100922.56;4976841;27;45569;-68
2023/09/05 04:16:03;;;;;;;;;8.33;8.00;;;;;23.44;51.39;100992.47;4994866;27;45361;-67
2023/09/05 04:18:29;;;;;;;;;9.00;8.00;;;;;23.35;51.95;100979.53;4977465;27;48042;-67
2023/09/05 04:20:59;;;;;;;;;8.67;8.67;;;;;23.40;52.13;100988.22;4981602;27;45494;-70
2023/09/05 04:23:25;;;;;;;;;10.00;8.33;;;;;23.16;52.00;100958.16;4977905;28;45337;-69
2023/09/05 04:25:59;;;;;;;;;11.33;9.33;;;;;23.17;52.10;100986.63;4995896;27;45329;-66
2023/09/05 04:28:25;;;;;;;;;8.33;8.00;;;;;23.06;52.41;100973.75;4996686;27;45649;-67
2023/09/05 04:30:51;;;;;;;;;11.00;8.33;;;;;23.20;52.63;101016.72;4994817;27;45438;-67
2023/09/05 04:33:20;;;;;;;;;11.00;11.00;;;;;23.09;52.22;100995.00;4994852;27;45453;-68
2023/09/05 04:35:46;;;;;;;;;12.67;12.33;;;;;23.19;52.61;101024.84;4976874;27;45821;-66
2023/09/05 04:38:21;;;;;;;;;10.67;10.67;;;;;23.07;52.31;101011.09;4977152;27;45760;-65
2023/09/05 04:40:50;;;;;;;;;11.00;10.00;;;;;22.85;53.06;100999.59;4994702;28;45532;-67
2023/09/05 04:43:15;;;;;;;;;12.50;10.50;;;;;22.98;52.95;101026.63;4993898;27;45474;-66
2023/09/05 04:45:41;;;;;;;;;10.00;7.00;;;;;23.09;52.91;101043.09;4994091;27;45460;-68
2023/09/05 04:48:07;;;;;;;;;11.00;9.00;;;;;23.08;52.68;101036.00;4994549;27;46203;-66
2023/09/05 04:50:39;;;;;;;;;9.00;8.33;;;;;22.97;52.67;101017.75;4976819;28;45776;-66
2023/09/05 04:53:05;;;;;;;;;9.00;9.00;;;;;23.08;52.49;101030.66;4995548;27;45291;-67
2023/09/05 04:55:31;;;;;;;;;7.33;6.00;;;;;22.78;52.43;100969.66;4978131;27;45362;-67
2023/09/05 04:57:57;;;;;;;;;11.33;9.67;;;;;23.16;52.73;101038.31;4994480;27;45650;-67
2023/09/05 05:00:31;;;;;;;;;12.67;11.00;;;;;23.01;52.76;101029.19;4993843;28;45409;-66
2023/09/05 05:02:58;;;;;;;;;11.67;9.67;;;;;23.18;52.83;101073.84;4995278;27;45524;-67
2023/09/05 05:05:23;;;;;;;;;11.33;8.00;;;;;23.05;52.89;101068.19;4994102;27;45474;-66
2023/09/05 05:07:49;;;;;;;;;5.67;5.67;;;;;23.15;52.49;101074.84;4993801;27;46044;-65
2023/09/05 05:10:15;;;;;;;;;15.00;10.00;;;;;23.21;52.61;101077.25;4993519;27;45367;-69
2023/09/05 05:12:43;;;;;;;;;13.67;10.00;;;;;23.22;52.67;101080.78;4976276;27;45527;-66
2023/09/05 05:15:09;;;;;;;;;10.67;9.33;;;;;23.17;52.79;101078.34;4995176;27;45483;-67
2023/09/05 05:17:36;;;;;;;;;9.00;8.00;;;;;23.15;52.80;101080.19;4995668;27;45401;-68
2023/09/05 05:20:15;;;;;;;;;9.33;9.33;;;;;23.06;52.97;101068.16;4998480;27;45426;-69
2023/09/05 05:22:44;;;;;;;;;9.00;9.00;;;;;23.11;52.78;101075.91;4998083;27;45486;-66
2023/09/05 05:25:10;;;;;;;;;12.33;11.00;;;;;22.41;52.45;100973.09;4996637;27;45549;-67
2023/09/05 05:27:35;;;;;;;;;10.00;9.33;;;;;23.09;53.44;101083.16;4996104;27;45534;-68
2023/09/05 05:30:02;;;;;;;;;12.00;10.67;;;;;23.05;53.32;101081.56;4996478;27;45529;-66
2023/09/05 05:32:28;;;;;;;;;10.00;10.00;;;;;22.90;53.01;101048.34;4997280;27;45343;-67
2023/09/05 05:34:54;;;;;;;;;13.00;10.33;;;;;22.72;53.07;101020.66;4996655;27;45553;-68
2023/09/05 05:37:20;;;;;;;;;10.33;9.33;;;;;23.15;52.86;101090.03;4995215;27;46658;-67
2023/09/05 05:39:45;;;;;;;;;13.00;11.00;;;;;23.09;52.89;101085.84;4982793;27;45457;-67
2023/09/05 05:42:11;;;;;;;;;10.00;8.67;;;;;23.08;53.12;101089.44;4996858;27;45407;-67
2023/09/05 05:44:37;;;;;;;;;10.00;10.00;;;;;22.79;53.16;101048.81;4996523;27;45480;-68
2023/09/05 05:47:03;;;;;;;;;8.33;8.33;;;;;23.02;52.86;101084.38;4996448;27;46042;-68
2023/09/05 05:49:29;;;;;;;;;12.00;9.67;;;;;22.89;53.29;101064.44;4996653;27;45227;-67
2023/09/05 05:52:03;;;;;;;;;13.00;11.00;;;;;22.99;53.38;101085.38;4996063;27;45509;-69
2023/09/05 05:54:29;;;;;;;;;12.33;8.00;;;;;22.76;53.16;101050.78;4996436;27;45500;-67
2023/09/05 05:56:55;;;;;;;;;10.33;6.00;;;;;23.11;52.85;101083.94;4996079;27;46375;-68
2023/09/05 05:59:27;;;;;;;;;12.00;8.67;;;;;22.90;53.36;101058.16;4997312;27;45523;-68
2023/09/05 06:02:02;;;;;;;;;9.67;9.67;;;;;22.84;53.55;101052.16;4995902;27;45532;-71
2023/09/05 06:04:27;;;;;;;;;10.00;9.33;;;;;23.00;53.25;101083.56;4997615;27;45403;-69
2023/09/05 06:06:53;;;;;;;;;15.00;11.00;;;;;22.42;53.10;100977.47;4996093;27;45495;-67
2023/09/05 06:09:19;;;;;;;;;17.67;14.00;;;;;23.09;53.24;101088.50;4996471;27;45331;-68
2023/09/05 06:11:46;;;;;;;;;14.00;13.67;;;;;22.93;53.33;101063.38;4979389;27;45333;-67
2023/09/05 06:14:16;;;;;;;;;12.67;11.33;;;;;22.85;52.98;101047.66;4997806;27;45383;-68
2023/09/05 06:16:44;;;;;;;;;11.00;10.00;;;;;23.03;53.12;101091.44;4996103;27;45363;-68
2023/09/05 06:19:10;;;;;;;;;13.33;13.00;;;;;23.04;53.28;101101.16;4978017;28;45327;-69
2023/09/05 06:21:36;;;;;;;;;9.33;8.67;;;;;22.81;53.02;101043.41;4997101;27;45436;-69
2023/09/05 06:24:04;;;;;;;;;9.00;9.00;;;;;23.12;53.03;101101.72;4996339;27;45530;-65
2023/09/05 06:26:30;;;;;;;;;10.33;9.00;;;;;22.95;53.05;101072.19;4995783;27;45443;-68
2023/09/05 06:28:55;;;;;;;;;11.33;11.33;;;;;23.10;53.15;101086.69;4995144;27;45437;-67
2023/09/05 06:31:21;;;;;;;;;11.67;8.67;;;;;23.26;52.70;101111.78;4994764;27;45552;-69
2023/09/05 06:33:47;;;;;;;;;11.67;8.67;;;;;23.38;52.50;101113.03;4996022;27;45504;-67
2023/09/05 06:36:13;;;;;;;;;12.33;10.33;;;;;23.07;52.38;101037.81;4977536;27;46753;-69
2023/09/05 06:38:39;;;;;;;;;9.67;9.33;;;;;23.62;52.01;101111.91;4987686;27;45513;-73
2023/09/05 06:41:08;;;;;;;;;8.67;8.67;;;;;23.55;51.95;101098.91;4989895;27;45479;-66
2023/09/05 06:43:34;;;;;;;;;10.67;10.67;;;;;23.59;52.15;101112.06;4993895;27;45493;-69
2023/09/05 06:46:03;;;;;;;;;13.67;9.33;;;;;23.71;52.15;101092.75;4981004;27;46672;-68
2023/09/05 06:48:29;;;;;;;;;13.00;10.67;;;;;23.75;52.19;101098.84;4969526;28;45436;-67
2023/09/05 06:50:58;;;;;;;;;12.00;11.67;;;;;23.33;51.62;101029.53;4975791;27;45564;-71
2023/09/05 06:53:25;;;;;;;;;10.00;10.00;;;;;23.44;51.96;101053.94;4976129;28;45908;-71
2023/09/05 06:55:51;;;;;;;;;14.00;11.67;;;;;23.73;51.36;101086.47;4971355;28;46821;-69
2023/09/05 06:58:18;;;;;;;;;13.67;11.33;;;;;23.68;51.87;101100.94;4980325;27;45450;-71
2023/09/05 07:00:44;;;;;;;;;12.67;11.33;;;;;23.61;51.78;101083.44;4975417;27;45544;-68
2023/09/05 07:03:10;;;;;;;;;13.33;11.00;;;;;23.65;52.04;101095.72;4975634;27;45421;-69
2023/09/05 07:05:41;;;;;;;;;12.33;10.00;;;;;23.66;51.83;101094.78;4984303;28;45529;-69
2023/09/05 07:08:06;;;;;;;;;13.00;10.00;;;;;23.77;51.74;101098.78;4976100;27;45352;-70
2023/09/05 07:10:32;;;;;;;;;9.33;9.33;;;;;23.69;51.68;101091.97;4975908;27;45441;-69
2023/09/05 07:12:57;;;;;;;;;11.67;11.00;;;;;23.71;51.77;101098.09;4975674;27;45217;-68
2023/09/05 07:15:23;;;;;;;;;11.00;11.00;;;;;23.67;51.96;101096.50;4977167;27;45925;-69
2023/09/05 07:17:49;;;;;;;;;12.00;10.00;;;;;23.75;52.00;101092.63;4984247;27;45545;-69
2023/09/05 07:20:15;;;;;;;;;10.33;8.33;;;;;23.91;51.77;101102.53;4980211;27;45469;-69
2023/09/05 07:22:41;;;;;;;;;11.33;9.67;;;;;24.02;51.39;101090.47;4976931;28;45454;-69
2023/09/05 07:25:07;;;;;;;;;11.67;9.67;;;;;24.08;50.99;101096.41;4976976;28;46315;-69
2023/09/05 07:27:32;;;;;;;;;9.67;9.67;;;;;24.24;50.85;101101.84;4975455;27;45445;-70
2023/09/05 07:29:58;;;;;;;;;12.00;11.67;;;;;24.33;50.99;101109.41;4975666;28;45559;-70
2023/09/05 07:32:24;;;;;;;;;13.00;10.33;;;;;24.30;51.21;101114.06;4976236;28;45517;-70
2023/09/05 07:34:49;;;;;;;;;11.67;10.00;;;;;24.38;50.90;101106.50;4961555;28;47089;-69
2023/09/05 07:37:16;;;;;;;;;12.00;12.00;;;;;24.48;51.05;101101.59;4973228;27;45638;-69
2023/09/05 07:39:50;;;;;;;;;11.33;8.67;;;;;24.62;50.20;101106.25;4961069;27;45516;-69
2023/09/05 07:42:16;;;;;;;;;10.33;10.00;;;;;24.79;49.80;101116.09;4994621;27;45511;-67
2023/09/05 07:44:41;;;;;;;;;11.00;10.67;;;;;24.76;50.47;101095.69;4994042;27;45739;-69
2023/09/05 07:47:07;;;;;;;;;11.33;11.33;;;;;24.76;50.10;101085.00;4981085;27;45373;-67
2023/09/05 07:49:37;;;;;;;;;10.00;9.00;;;;;24.92;49.87;101111.84;4974973;27;45390;-69
2023/09/05 07:52:04;;;;;;;;;11.00;9.00;;;;;24.96;50.04;101105.38;4975137;27;45446;-69
2023/09/05 07:54:30;;;;;;;;;12.33;10.00;;;;;25.02;49.56;101101.53;4974822;27;45375;-72
2023/09/05 07:56:55;;;;;;;;;10.33;10.00;;;;;25.12;49.35;101103.63;4974639;27;45485;-67
2023/09/05 07:59:23;;;;;;;;;11.00;10.00;;;;;25.01;49.77;101089.06;4974990;28;45525;-68
2023/09/05 08:01:48;;;;;;;;;10.67;10.67;;;;;25.03;49.65;101092.53;4975158;28;45552;-69
2023/09/05 08:04:14;;;;;;;;;14.00;10.67;;;;;25.24;49.54;101109.31;4974460;27;45410;-70
2023/09/05 08:06:39;;;;;;;;;8.75;8.00;;;;;25.38;49.83;101109.44;4974569;27;45446;-67
2023/09/05 08:09:05;;;;;;;;;13.67;12.33;;;;;25.51;49.09;101096.25;4975324;28;45493;-67
2023/09/05 08:11:34;;;;;;;;;12.25;9.00;;;;;25.63;48.59;101114.34;4974631;28;45663;-67
2023/09/05 08:14:00;;;;;;;;;10.00;10.00;;;;;25.66;48.54;101115.97;4974277;27;45248;-68
2023/09/05 08:16:25;;;;;;;;;12.50;10.00;;;;;25.50;48.92;101094.50;4977676;27;45505;-70
2023/09/05 08:18:51;;;;;;;;;12.25;11.50;;;;;25.59;48.84;101104.72;4975993;27;45410;-71
2023/09/05 08:21:18;;;;;;;;;10.75;10.75;;;;;25.72;48.58;101103.09;4975883;27;45517;-70
2023/09/05 08:23:44;;;;;;;;;11.00;9.75;;;;;26.03;48.45;101106.78;4975678;28;46233;-71
2023/09/05 08:26:10;;;;;;;;;11.25;10.50;;;;;26.15;48.02;101113.22;4975084;27;45561;-68
2023/09/05 08:28:42;;;;;;;;;15.50;11.50;;;;;26.16;48.09;101107.78;4974442;28;45476;-69
2023/09/05 08:31:08;;;;;;;;;12.25;10.50;;;;;26.19;47.64;101114.81;4966046;28;45602;-67
2023/09/05 08:33:34;;;;;;;;;14.50;13.00;;;;;25.99;47.80;101097.16;4978036;27;45988;-68
2023/09/05 08:35:59;;;;;;;;;11.00;9.50;;;;;26.20;47.76;101108.50;4963178;28;45457;-69
2023/09/05 08:38:25;;;;;;;;;11.75;10.00;;;;;26.33;47.53;101100.59;4979298;27;45458;-68
2023/09/05 08:40:51;;;;;;;;;13.00;11.50;;;;;26.41;47.79;101099.19;4970407;27;45626;-69
2023/09/05 08:43:22;;;;;;;;;10.75;8.25;;;;;26.36;47.67;101089.66;4995059;27;45475;-68
2023/09/05 08:45:50;;;;;;;;;11.50;10.00;;;;;26.52;47.03;101119.16;4993861;27;45291;-69
2023/09/05 08:48:16;;;;;;;;;10.00;10.00;;;;;26.34;47.27;101083.50;4993253;27;45330;-68
2023/09/05 08:50:42;;;;;;;;;9.50;9.50;;;;;26.47;47.45;101095.25;4993610;27;45541;-69
2023/09/05 08:53:12;;;;;;;;;11.75;11.75;;;;;26.60;46.81;101095.44;4994577;27;46108;-66
2023/09/05 08:55:47;;;;;;;;;13.00;10.75;;;;;26.76;47.33;101122.25;4996674;27;45590;-70
2023/09/05 08:58:15;;;;;;;;;12.75;11.00;;;;;26.81;46.79;101130.91;4996712;27;45480;-71
2023/09/05 09:00:43;;;;;;;;;16.50;11.75;;;;;26.61;47.18;101119.53;4989905;27;45339;-68
2023/09/05 09:03:08;;;;;;;;;11.25;11.25;;;;;26.71;47.39;101130.59;4977499;27;45648;-68
2023/09/05 09:05:36;;;;;;;;;9.00;8.25;;;;;26.82;47.15;101122.75;4978039;27;45418;-68
2023/09/05 09:08:03;;;;;;;;;12.75;11.25;;;;;26.96;46.73;101137.19;4978220;27;45369;-69
2023/09/05 09:10:29;;;;;;;;;10.25;10.25;;;;;26.73;46.68;101083.00;4989669;27;45437;-69
2023/09/05 09:13:12;;;;;;;;;13.25;11.25;;;;;27.11;47.16;101122.81;4977710;28;45928;-69
2023/09/05 09:15:43;;;;;;;;;12.25;11.50;;;;;27.11;46.67;101127.31;4978985;27;45324;-71
2023/09/05 09:18:20;;;;;;;;;11.75;10.50;;;;;27.24;46.62;101122.94;4962148;27;45508;-67
2023/09/05 09:20:49;;;;;;;;;12.50;12.25;;;;;27.43;46.44;101126.25;4964097;28;45402;-69
2023/09/05 09:23:35;;;;;;;;;10.50;9.00;;;;;27.56;46.02;101128.16;4977155;28;45306;-70
2023/09/05 09:26:02;;;;;;;;;15.25;12.00;;;;;27.66;45.81;101115.84;4979338;27;45437;-67
2023/09/05 09:28:32;;;;;;;;;13.50;11.75;;;;;27.78;45.57;101124.94;4977575;27;45423;-69
2023/09/05 09:31:07;;;;;;;;;13.00;11.75;;;;;27.70;45.49;101096.69;4976819;27;45333;-69
2023/09/05 09:33:33;;;;;;;;;15.00;15.00;;;;;27.95;45.23;101123.88;4976341;27;45442;-67
2023/09/05 09:36:06;;;;;;;;;14.00;12.00;;;;;27.98;45.20;101126.41;4963155;28;46556;-67
2023/09/05 09:38:32;;;;;;;;;13.25;11.00;;;;;28.10;44.94;101123.75;4979301;27;45264;-69
2023/09/05 09:41:02;;;;;;;;;14.75;12.50;;;;;28.12;45.13;101119.16;4989618;27;45512;-67
2023/09/05 09:43:32;;;;;;;;;13.50;11.50;;;;;28.20;45.17;101105.16;4995239;27;46240;-67
2023/09/05 09:45:59;;;;;;;;;16.25;12.75;;;;;28.28;44.67;101118.13;4995781;27;45419;-67
2023/09/05 09:48:29;;;;;;;;;12.25;11.25;;;;;28.25;44.89;101115.63;4996016;27;45271;-68
2023/09/05 09:50:56;;;;;;;;;12.75;12.75;;;;;28.21;45.10;101114.97;4996367;27;45549;-66
2023/09/05 09:53:37;;;;;;;;;14.75;12.00;;;;;28.33;44.77;101111.47;4996418;27;46250;-69
2023/09/05 09:56:15;;;;;;;;;12.25;10.50;;;;;28.42;45.16;101106.44;4979499;27;45788;-70
2023/09/05 09:58:46;;;;;;;;;12.25;12.00;;;;;28.48;45.24;101096.13;4996179;27;45505;-69
2023/09/05 10:01:13;;;;;;;;;15.25;11.75;;;;;28.56;44.80;101100.16;4996557;27;45398;-68
2023/09/05 10:03:41;;;;;;;;;12.25;12.00;;;;;28.66;44.62;101076.97;4978305;27;47913;-69
2023/09/05 10:06:08;;;;;;;;;15.00;13.00;;;;;28.84;44.25;101102.66;5032010;27;45315;-69
2023/09/05 10:08:34;;;;;;;;;10.00;10.00;;;;;28.90;44.04;101098.69;4995798;27;45461;-70
2023/09/05 10:11:02;;;;;;;;;12.25;11.50;;;;;29.04;43.91;101100.41;4995991;27;45423;-69
2023/09/05 10:13:32;;;;;;;;;10.25;10.25;;;;;29.08;43.32;101083.94;4985077;27;45368;-72
2023/09/05 10:16:02;;;;;;;;;14.50;13.00;;;;;29.38;43.08;101091.72;4986589;27;45290;-72
2023/09/05 10:18:34;;;;;;;;;14.00;12.75;;;;;29.47;43.33;101095.59;4991753;27;45533;-71
2023/09/05 10:21:01;;;;;;;;;13.50;13.25;;;;;29.43;43.06;101090.53;4987371;27;45514;-69
2023/09/05 10:23:33;;;;;;;;;12.00;10.50;;;;;29.62;42.68;101101.72;4997132;27;46369;-68
2023/09/05 10:26:04;;;;;;;;;12.25;12.25;;;;;29.76;42.54;101096.19;4996068;27;45324;-68
2023/09/05 10:28:31;;;;;;;;;14.75;13.50;;;;;29.85;41.83;101072.19;4988370;27;45399;-69
2023/09/05 10:31:12;;;;;;;;;14.25;13.25;;;;;30.06;41.60;101097.59;4989598;27;45398;-69
2023/09/05 10:33:38;;;;;;;;;17.00;13.00;;;;;30.09;41.19;101085.69;4987180;27;46248;-69
2023/09/05 10:36:06;;;;;;;;;14.75;14.75;;;;;30.25;41.70;101088.97;4983449;27;45565;-69
2023/09/05 10:38:38;;;;;;;;;13.25;13.25;;;;;30.19;40.93;101089.44;4977221;27;45914;-70
2023/09/05 10:41:03;;;;;;;;;16.50;13.00;;;;;30.24;41.45;101081.84;4977516;28;45495;-69
2023/09/05 10:43:29;;;;;;;;;12.25;12.25;;;;;30.38;40.74;101081.72;4995332;27;45543;-67
2023/09/05 10:45:59;;;;;;;;;13.25;13.25;;;;;30.57;40.52;101088.41;4994859;27;45500;-68
2023/09/05 10:48:32;;;;;;;;;13.75;12.00;;;;;30.61;40.69;101073.66;4993805;27;45410;-67
2023/09/05 10:51:12;;;;;;;;;13.75;12.00;;;;;30.86;40.33;101069.97;4996072;27;45453;-69
2023/09/05 10:53:40;;;;;;;;;13.75;12.75;;;;;31.03;39.65;101057.81;4994432;27;45967;-69
2023/09/05 10:56:26;;;;;;;;;15.80;14.80;;;;;31.25;38.95;101062.34;4994584;27;45318;-67
2023/09/05 10:58:54;;;;;;;;;13.00;13.00;;;;;31.37;38.67;101068.63;4994927;27;45453;-68
2023/09/05 11:01:45;;;;;;;;;17.00;14.00;;;;;31.48;37.84;101071.38;4995255;27;45425;-69
2023/09/05 11:04:18;;;;;;;;;13.00;13.00;;;;;31.53;37.27;101082.69;4996883;27;45635;-67
2023/09/05 11:06:59;;;;;;;;;15.20;14.00;;;;;31.59;36.79;101074.06;4995230;27;45387;-67
2023/09/05 11:09:25;;;;;;;;;13.50;12.00;;;;;31.63;35.95;101056.59;4995718;27;45461;-69
2023/09/05 11:11:52;;;;;;;;;20.75;17.25;;;;;31.96;35.72;101065.63;4977622;27;45259;-69
2023/09/05 11:14:32;;;;;;;;;11.50;10.00;;;;;32.13;36.48;101071.50;4994761;27;46106;-68
2023/09/05 11:16:57;;;;;;;;;19.60;15.40;;;;;32.25;36.25;101076.78;4993934;27;45422;-69
2023/09/05 11:19:40;;;;;;;;;13.25;10.00;;;;;32.35;35.58;101079.56;4994564;27;45362;-66